sensor_id;sensor_type;location;lat;lon;timestamp;temperature;humidity
22984;DHT22;11658;48.908;9.140;2023-07-28T04:01:33;17.10;99.90
22984;DHT22;11658;48.908;9.140;2023-07-28T04:03:59;17.10;99.90
22984;DHT22;11658;48.908;9.140;2023-07-28T04:09:10;17.10;99.90
22984;DHT22;11658;48.908;9.140;2023-07-28T04:11:37;17.20;99.90
22984;DHT22;11658;48.908;9.140;2023-07-28T04:14:03;17.30;99.90
22984;DHT22;11658;48.908;9.140;2023-07-28T04:16:29;17.30;99.90
22984;DHT22;11658;48.908;9.140;2023-07-28T04:18:55;17.30;99.90
22984;DHT22;11658;48.908;9.140;2023-07-28T04:21:21;17.30;99.90
22984;DHT22;11658;48.908;9.140;2023-07-28T04:23:47;17.40;99.90
22984;DHT22;11658;48.908;9.140;2023-07-28T04:26:12;17.40;99.90
22984;DHT22;11658;48.908;9.140;2023-07-28T04:28:38;17.40;99.90
22984;DHT22;11658;48.908;9.140;2023-07-28T04:31:05;17.50;99.90
22984;DHT22;11658;48.908;9.140;2023-07-28T04:33:30;17.50;99.90
22984;DHT22;11658;48.908;9.140;2023-07-28T04:35:56;17.40;99.90
22984;DHT22;11658;48.908;9.140;2023-07-28T04:38:21;17.50;99.90
22984;DHT22;11658;48.908;9.140;2023-07-28T04:40:47;17.60;99.90
22984;DHT22;11658;48.908;9.140;2023-07-28T04:43:13;17.50;99.90
22984;DHT22;11658;48.908;9.140;2023-07-28T04:45:38;17.50;99.90
22984;DHT22;11658;48.908;9.140;2023-07-28T04:48:04;17.60;99.90
22984;DHT22;11658;48.908;9.140;2023-07-28T04:50:29;17.50;99.90
22984;DHT22;11658;48.908;9.140;2023-07-28T04:52:55;17.50;99.90
22984;DHT22;11658;48.908;9.140;2023-07-28T04:55:21;17.50;99.90
22984;DHT22;11658;48.908;9.140;2023-07-28T04:57:46;17.60;99.90
22984;DHT22;11658;48.908;9.140;2023-07-28T05:00:12;17.60;99.90
22984;DHT22;11658;48.908;9.140;2023-07-28T05:02:38;17.60;99.90
22984;DHT22;11658;48.908;9.140;2023-07-28T05:05:04;17.60;99.90
22984;DHT22;11658;48.908;9.140;2023-07-28T05:07:30;17.60;99.90
22984;DHT22;11658;48.908;9.140;2023-07-28T05:09:55;17.60;99.90
22984;DHT22;11658;48.908;9.140;2023-07-28T05:12:21;17.60;99.90
22984;DHT22;11658;48.908;9.140;2023-07-28T05:14:46;17.70;99.90
22984;DHT22;11658;48.908;9.140;2023-07-28T05:17:12;17.70;99.90
22984;DHT22;11658;48.908;9.140;2023-07-28T05:19:38;17.70;99.90
22984;DHT22;11658;48.908;9.140;2023-07-28T05:22:03;17.80;99.90
22984;DHT22;11658;48.908;9.140;2023-07-28T05:24:32;17.80;99.90
22984;DHT22;11658;48.908;9.140;2023-07-28T05:27:00;17.90;99.90
22984;DHT22;11658;48.908;9.140;2023-07-28T05:29:26;17.90;99.90
22984;DHT22;11658;48.908;9.140;2023-07-28T05:31:51;17.90;99.90
22984;DHT22;11658;48.908;9.140;2023-07-28T05:34:17;17.90;99.90
22984;DHT22;11658;48.908;9.140;2023-07-28T05:36:43;17.90;99.90
22984;DHT22;11658;48.908;9.140;2023-07-28T05:39:09;17.80;99.90
22984;DHT22;11658;48.908;9.140;2023-07-28T05:41:37;17.70;99.90
22984;DHT22;11658;48.908;9.140;2023-07-28T05:44:03;17.60;99.90
22984;DHT22;11658;48.908;9.140;2023-07-28T05:46:29;17.60;99.90
22984;DHT22;11658;48.908;9.140;2023-07-28T05:48:55;17.60;99.90
22984;DHT22;11658;48.908;9.140;2023-07-28T05:51:21;17.60;99.90
22984;DHT22;11658;48.908;9.140;2023-07-28T05:53:47;17.60;99.90
22984;DHT22;11658;48.908;9.140;2023-07-28T05:56:13;17.60;99.90
22984;DHT22;11658;48.908;9.140;2023-07-28T05:58:38;17.60;99.90
22984;DHT22;11658;48.908;9.140;2023-07-28T06:01:04;17.60;99.90
22984;DHT22;11658;48.908;9.140;2023-07-28T06:03:30;17.60;99.90
22984;DHT22;11658;48.908;9.140;2023-07-28T06:05:56;17.60;99.90
22984;DHT22;11658;48.908;9.140;2023-07-28T06:08:22;17.70;99.90
22984;DHT22;11658;48.908;9.140;2023-07-28T06:10:47;17.60;99.90
22984;DHT22;11658;48.908;9.140;2023-07-28T06:13:13;17.70;99.90
22984;DHT22;11658;48.908;9.140;2023-07-28T06:15:39;17.70;99.90
22984;DHT22;11658;48.908;9.140;2023-07-28T06:18:05;17.70;99.90
22984;DHT22;11658;48.908;9.140;2023-07-28T06:20:31;17.70;99.90
22984;DHT22;11658;48.908;9.140;2023-07-28T06:22:56;17.70;99.90
22984;DHT22;11658;48.908;9.140;2023-07-28T06:25:22;17.70;99.90
22984;DHT22;11658;48.908;9.140;2023-07-28T06:27:48;17.80;99.90
22984;DHT22;11658;48.908;9.140;2023-07-28T06:30:13;17.80;99.90
22984;DHT22;11658;48.908;9.140;2023-07-28T06:32:39;17.80;99.90
22984;DHT22;11658;48.908;9.140;2023-07-28T06:35:05;17.90;99.90
22984;DHT22;11658;48.908;9.140;2023-07-28T06:37:32;18.00;99.90
22984;DHT22;11658;48.908;9.140;2023-07-28T06:39:58;18.00;99.90
22984;DHT22;11658;48.908;9.140;2023-07-28T06:42:24;18.00;99.90
22984;DHT22;11658;48.908;9.140;2023-07-28T06:44:50;18.10;99.90
22984;DHT22;11658;48.908;9.140;2023-07-28T06:47:16;18.20;99.90
22984;DHT22;11658;48.908;9.140;2023-07-28T06:49:42;18.20;99.90
22984;DHT22;11658;48.908;9.140;2023-07-28T06:52:08;18.20;99.90
22984;DHT22;11658;48.908;9.140;2023-07-28T06:54:34;18.30;99.90
22984;DHT22;11658;48.908;9.140;2023-07-28T06:56:59;18.30;99.90
22984;DHT22;11658;48.908;9.140;2023-07-28T06:59:25;18.30;99.90
22984;DHT22;11658;48.908;9.140;2023-07-28T07:01:50;18.50;99.90
22984;DHT22;11658;48.908;9.140;2023-07-28T07:04:16;18.60;99.90
22984;DHT22;11658;48.908;9.140;2023-07-28T07:06:42;18.70;99.90
22984;DHT22;11658;48.908;9.140;2023-07-28T07:09:07;18.80;99.90
22984;DHT22;11658;48.908;9.140;2023-07-28T07:11:33;18.80;99.90
22984;DHT22;11658;48.908;9.140;2023-07-28T07:13:59;18.90;99.90
22984;DHT22;11658;48.908;9.140;2023-07-28T07:16:24;19.00;99.90
22984;DHT22;11658;48.908;9.140;2023-07-28T07:18:51;19.00;99.90
22984;DHT22;11658;48.908;9.140;2023-07-28T07:21:17;19.10;99.90
22984;DHT22;11658;48.908;9.140;2023-07-28T07:23:42;19.30;99.90
22984;DHT22;11658;48.908;9.140;2023-07-28T07:26:08;19.40;99.90
22984;DHT22;11658;48.908;9.140;2023-07-28T07:28:33;19.40;99.90
22984;DHT22;11658;48.908;9.140;2023-07-28T07:31:01;19.50;99.90
22984;DHT22;11658;48.908;9.140;2023-07-28T07:33:27;19.70;99.90
22984;DHT22;11658;48.908;9.140;2023-07-28T07:35:53;19.80;99.90
22984;DHT22;11658;48.908;9.140;2023-07-28T07:38:18;20.00;99.90
22984;DHT22;11658;48.908;9.140;2023-07-28T07:40:47;19.90;99.90
22984;DHT22;11658;48.908;9.140;2023-07-28T07:43:15;19.80;99.90
22984;DHT22;11658;48.908;9.140;2023-07-28T07:45:45;19.90;99.90
22984;DHT22;11658;48.908;9.140;2023-07-28T07:48:15;20.10;99.90
22984;DHT22;11658;48.908;9.140;2023-07-28T07:50:41;19.80;99.90
22984;DHT22;11658;48.908;9.140;2023-07-28T07:53:06;19.70;99.90
22984;DHT22;11658;48.908;9.140;2023-07-28T07:55:32;19.90;99.90
22984;DHT22;11658;48.908;9.140;2023-07-28T07:57:57;19.80;99.90
22984;DHT22;11658;48.908;9.140;2023-07-28T08:00:23;19.70;99.90
22984;DHT22;11658;48.908;9.140;2023-07-28T08:02:52;19.80;99.90
22984;DHT22;11658;48.908;9.140;2023-07-28T08:05:17;19.70;99.90
22984;DHT22;11658;48.908;9.140;2023-07-28T08:07:43;19.70;99.90
22984;DHT22;11658;48.908;9.140;2023-07-28T08:10:09;19.80;99.90
22984;DHT22;11658;48.908;9.140;2023-07-28T08:12:35;19.80;99.90
22984;DHT22;11658;48.908;9.140;2023-07-28T08:15:00;19.70;99.90
22984;DHT22;11658;48.908;9.140;2023-07-28T08:17:26;19.90;99.90
22984;DHT22;11658;48.908;9.140;2023-07-28T08:19:51;19.90;99.90
22984;DHT22;11658;48.908;9.140;2023-07-28T08:22:17;19.90;99.90
22984;DHT22;11658;48.908;9.140;2023-07-28T08:24:43;20.00;99.90
22984;DHT22;11658;48.908;9.140;2023-07-28T08:27:08;20.10;99.90
22984;DHT22;11658;48.908;9.140;2023-07-28T08:29:34;20.10;99.90
22984;DHT22;11658;48.908;9.140;2023-07-28T08:31:59;20.10;99.90
22984;DHT22;11658;48.908;9.140;2023-07-28T08:34:26;20.10;99.90
22984;DHT22;11658;48.908;9.140;2023-07-28T08:36:52;20.20;99.90
22984;DHT22;11658;48.908;9.140;2023-07-28T08:39:18;20.20;99.90
22984;DHT22;11658;48.908;9.140;2023-07-28T08:41:44;20.00;99.90
22984;DHT22;11658;48.908;9.140;2023-07-28T08:44:09;19.80;99.90
22984;DHT22;11658;48.908;9.140;2023-07-28T08:46:35;19.80;99.90
22984;DHT22;11658;48.908;9.140;2023-07-28T08:49:01;19.90;99.90
22984;DHT22;11658;48.908;9.140;2023-07-28T08:51:27;19.80;99.90
22984;DHT22;11658;48.908;9.140;2023-07-28T08:53:53;19.90;99.90
22984;DHT22;11658;48.908;9.140;2023-07-28T08:56:18;20.00;99.90
22984;DHT22;11658;48.908;9.140;2023-07-28T08:58:45;20.10;99.90
22984;DHT22;11658;48.908;9.140;2023-07-28T09:01:11;20.30;99.90
22984;DHT22;11658;48.908;9.140;2023-07-28T09:03:39;20.70;99.90
22984;DHT22;11658;48.908;9.140;2023-07-28T09:06:06;20.90;99.90
22984;DHT22;11658;48.908;9.140;2023-07-28T09:08:35;20.80;99.90
22984;DHT22;11658;48.908;9.140;2023-07-28T09:11:03;20.90;99.90
22984;DHT22;11658;48.908;9.140;2023-07-28T09:13:36;20.80;99.90
22984;DHT22;11658;48.908;9.140;2023-07-28T09:16:02;20.90;99.90
22984;DHT22;11658;48.908;9.140;2023-07-28T09:18:28;21.20;99.90
22984;DHT22;11658;48.908;9.140;2023-07-28T09:20:54;21.20;99.90
22984;DHT22;11658;48.908;9.140;2023-07-28T09:23:28;21.50;99.90
22984;DHT22;11658;48.908;9.140;2023-07-28T09:25:59;21.90;99.90
22984;DHT22;11658;48.908;9.140;2023-07-28T09:28:39;22.00;99.90
22984;DHT22;11658;48.908;9.140;2023-07-28T09:31:05;22.60;99.90
22984;DHT22;11658;48.908;9.140;2023-07-28T09:33:35;22.70;99.90
22984;DHT22;11658;48.908;9.140;2023-07-28T09:38:40;22.50;99.90
22984;DHT22;11658;48.908;9.140;2023-07-28T09:41:10;22.00;99.90
22984;DHT22;11658;48.908;9.140;2023-07-28T09:43:37;22.10;99.90
22984;DHT22;11658;48.908;9.140;2023-07-28T09:46:04;22.10;99.90
22984;DHT22;11658;48.908;9.140;2023-07-28T09:48:32;22.60;99.90
22984;DHT22;11658;48.908;9.140;2023-07-28T09:50:59;23.20;99.90
22984;DHT22;11658;48.908;9.140;2023-07-28T09:53:27;23.00;99.90
22984;DHT22;11658;48.908;9.140;2023-07-28T09:55:53;23.10;99.90
22984;DHT22;11658;48.908;9.140;2023-07-28T09:58:23;23.20;99.90
22984;DHT22;11658;48.908;9.140;2023-07-28T10:00:50;23.10;99.90
22984;DHT22;11658;48.908;9.140;2023-07-28T10:03:16;23.20;99.90
22984;DHT22;11658;48.908;9.140;2023-07-28T10:05:43;23.40;99.90
22984;DHT22;11658;48.908;9.140;2023-07-28T10:08:09;23.00;99.90
22984;DHT22;11658;48.908;9.140;2023-07-28T10:10:35;22.40;99.90
22984;DHT22;11658;48.908;9.140;2023-07-28T10:13:01;22.30;99.90
22984;DHT22;11658;48.908;9.140;2023-07-28T10:15:30;22.60;99.90
22984;DHT22;11658;48.908;9.140;2023-07-28T10:17:57;22.80;99.90
22984;DHT22;11658;48.908;9.140;2023-07-28T10:20:36;22.80;99.90
22984;DHT22;11658;48.908;9.140;2023-07-28T10:23:07;22.90;99.90
22984;DHT22;11658;48.908;9.140;2023-07-28T10:25:37;23.10;99.90
22984;DHT22;11658;48.908;9.140;2023-07-28T10:28:04;23.20;99.90
22984;DHT22;11658;48.908;9.140;2023-07-28T10:30:38;22.90;99.90
22984;DHT22;11658;48.908;9.140;2023-07-28T10:33:04;22.90;99.90
22984;DHT22;11658;48.908;9.140;2023-07-28T10:35:30;22.90;99.90
22984;DHT22;11658;48.908;9.140;2023-07-28T10:37:57;22.60;99.90
22984;DHT22;11658;48.908;9.140;2023-07-28T10:42:52;22.50;99.90
22984;DHT22;11658;48.908;9.140;2023-07-28T10:45:19;22.40;99.90
22984;DHT22;11658;48.908;9.140;2023-07-28T10:47:45;22.50;99.90
22984;DHT22;11658;48.908;9.140;2023-07-28T10:50:11;22.30;99.90
22984;DHT22;11658;48.908;9.140;2023-07-28T10:52:45;22.20;99.90
22984;DHT22;11658;48.908;9.140;2023-07-28T10:57:44;22.00;99.90
22984;DHT22;11658;48.908;9.140;2023-07-28T11:00:11;21.90;99.90
22984;DHT22;11658;48.908;9.140;2023-07-28T11:02:48;21.80;99.90
22984;DHT22;11658;48.908;9.140;2023-07-28T11:05:23;21.80;99.90
22984;DHT22;11658;48.908;9.140;2023-07-28T11:07:51;21.80;99.90
22984;DHT22;11658;48.908;9.140;2023-07-28T11:10:18;22.00;99.90
22984;DHT22;11658;48.908;9.140;2023-07-28T11:12:45;22.20;99.90
22984;DHT22;11658;48.908;9.140;2023-07-28T11:15:12;22.10;99.90
22984;DHT22;11658;48.908;9.140;2023-07-28T11:17:39;22.10;99.90
22984;DHT22;11658;48.908;9.140;2023-07-28T11:20:18;22.10;99.90
22984;DHT22;11658;48.908;9.140;2023-07-28T11:22:54;22.20;99.90
22984;DHT22;11658;48.908;9.140;2023-07-28T11:25:20;22.20;99.90
22984;DHT22;11658;48.908;9.140;2023-07-28T11:27:47;22.20;99.90
22984;DHT22;11658;48.908;9.140;2023-07-28T11:30:14;22.40;99.90
22984;DHT22;11658;48.908;9.140;2023-07-28T11:32:43;22.40;99.90
22984;DHT22;11658;48.908;9.140;2023-07-28T11:35:10;22.60;99.90
22984;DHT22;11658;48.908;9.140;2023-07-28T11:37:37;22.70;99.90
22984;DHT22;11658;48.908;9.140;2023-07-28T11:40:05;22.90;99.90
22984;DHT22;11658;48.908;9.140;2023-07-28T11:42:38;23.00;99.90
22984;DHT22;11658;48.908;9.140;2023-07-28T11:45:04;23.20;99.90
22984;DHT22;11658;48.908;9.140;2023-07-28T11:47:30;23.40;99.90
22984;DHT22;11658;48.908;9.140;2023-07-28T11:49:56;23.10;99.90
22984;DHT22;11658;48.908;9.140;2023-07-28T11:52:28;22.90;99.90
22984;DHT22;11658;48.908;9.140;2023-07-28T11:54:54;23.00;99.90
22984;DHT22;11658;48.908;9.140;2023-07-28T11:57:20;23.10;99.90
22984;DHT22;11658;48.908;9.140;2023-07-28T11:59:46;23.30;99.90
22984;DHT22;11658;48.908;9.140;2023-07-28T12:02:11;23.50;99.90
22984;DHT22;11658;48.908;9.140;2023-07-28T12:04:38;23.70;99.90
22984;DHT22;11658;48.908;9.140;2023-07-28T12:07:16;23.80;99.90
22984;DHT22;11658;48.908;9.140;2023-07-28T12:12:24;24.00;99.90
22984;DHT22;11658;48.908;9.140;2023-07-28T12:14:52;23.80;99.90
22984;DHT22;11658;48.908;9.140;2023-07-28T12:17:19;23.80;99.90
22984;DHT22;11658;48.908;9.140;2023-07-28T12:19:58;23.60;99.90
22984;DHT22;11658;48.908;9.140;2023-07-28T12:22:24;23.30;99.90
22984;DHT22;11658;48.908;9.140;2023-07-28T12:24:49;23.20;99.90
22984;DHT22;11658;48.908;9.140;2023-07-28T12:27:15;23.00;99.90
22984;DHT22;11658;48.908;9.140;2023-07-28T12:29:41;22.70;99.90
22984;DHT22;11658;48.908;9.140;2023-07-28T12:32:07;22.20;99.90
22984;DHT22;11658;48.908;9.140;2023-07-28T12:34:34;21.80;99.90
22984;DHT22;11658;48.908;9.140;2023-07-28T12:36:59;21.50;99.90
22984;DHT22;11658;48.908;9.140;2023-07-28T12:39:25;21.20;99.90
22984;DHT22;11658;48.908;9.140;2023-07-28T12:41:51;21.10;99.90
22984;DHT22;11658;48.908;9.140;2023-07-28T12:44:19;21.10;99.90
22984;DHT22;11658;48.908;9.140;2023-07-28T12:46:45;21.30;99.90
22984;DHT22;11658;48.908;9.140;2023-07-28T12:49:11;21.20;99.90
22984;DHT22;11658;48.908;9.140;2023-07-28T12:51:36;21.20;99.90
22984;DHT22;11658;48.908;9.140;2023-07-28T12:54:02;21.30;99.90
22984;DHT22;11658;48.908;9.140;2023-07-28T12:56:28;21.30;99.90
22984;DHT22;11658;48.908;9.140;2023-07-28T12:58:54;21.50;99.90
22984;DHT22;11658;48.908;9.140;2023-07-28T13:01:19;21.60;99.90
22984;DHT22;11658;48.908;9.140;2023-07-28T13:03:45;21.60;99.90
22984;DHT22;11658;48.908;9.140;2023-07-28T13:06:10;21.60;99.90
22984;DHT22;11658;48.908;9.140;2023-07-28T13:08:36;21.60;99.90
22984;DHT22;11658;48.908;9.140;2023-07-28T13:11:01;21.50;99.90
22984;DHT22;11658;48.908;9.140;2023-07-28T13:13:28;21.40;99.90
22984;DHT22;11658;48.908;9.140;2023-07-28T13:15:55;21.30;99.90
22984;DHT22;11658;48.908;9.140;2023-07-28T13:18:21;21.30;99.90
22984;DHT22;11658;48.908;9.140;2023-07-28T13:20:47;21.20;99.90
22984;DHT22;11658;48.908;9.140;2023-07-28T13:23:12;21.10;99.90
22984;DHT22;11658;48.908;9.140;2023-07-28T13:25:38;21.10;99.90
22984;DHT22;11658;48.908;9.140;2023-07-28T13:28:04;20.90;99.90
22984;DHT22;11658;48.908;9.140;2023-07-28T13:30:29;20.70;99.90
22984;DHT22;11658;48.908;9.140;2023-07-28T13:32:55;20.80;99.90
22984;DHT22;11658;48.908;9.140;2023-07-28T13:35:21;20.90;99.90
22984;DHT22;11658;48.908;9.140;2023-07-28T13:37:47;20.80;99.90
22984;DHT22;11658;48.908;9.140;2023-07-28T13:40:12;20.80;99.90
22984;DHT22;11658;48.908;9.140;2023-07-28T13:42:38;20.70;99.90
22984;DHT22;11658;48.908;9.140;2023-07-28T13:45:04;21.00;99.90
22984;DHT22;11658;48.908;9.140;2023-07-28T13:47:29;21.10;99.90
22984;DHT22;11658;48.908;9.140;2023-07-28T13:49:55;21.10;99.90
22984;DHT22;11658;48.908;9.140;2023-07-28T13:52:21;21.00;99.90
22984;DHT22;11658;48.908;9.140;2023-07-28T13:54:46;20.90;99.90
22984;DHT22;11658;48.908;9.140;2023-07-28T13:57:12;20.70;99.90
22984;DHT22;11658;48.908;9.140;2023-07-28T13:59:38;20.60;99.90
22984;DHT22;11658;48.908;9.140;2023-07-28T14:02:04;20.30;99.90
22984;DHT22;11658;48.908;9.140;2023-07-28T14:04:29;20.10;99.90
22984;DHT22;11658;48.908;9.140;2023-07-28T14:06:55;20.00;99.90
22984;DHT22;11658;48.908;9.140;2023-07-28T14:09:20;19.90;99.90
22984;DHT22;11658;48.908;9.140;2023-07-28T14:11:47;20.00;99.90
22984;DHT22;11658;48.908;9.140;2023-07-28T14:14:13;20.00;99.90
22984;DHT22;11658;48.908;9.140;2023-07-28T14:16:38;20.00;99.90
22984;DHT22;11658;48.908;9.140;2023-07-28T14:19:04;20.00;99.90
22984;DHT22;11658;48.908;9.140;2023-07-28T14:21:29;19.90;99.90
22984;DHT22;11658;48.908;9.140;2023-07-28T14:23:55;19.90;99.90
22984;DHT22;11658;48.908;9.140;2023-07-28T14:26:20;20.00;99.90
22984;DHT22;11658;48.908;9.140;2023-07-28T14:28:46;20.00;99.90
22984;DHT22;11658;48.908;9.140;2023-07-28T14:31:12;20.10;99.90
22984;DHT22;11658;48.908;9.140;2023-07-28T14:33:37;20.20;99.90
22984;DHT22;11658;48.908;9.140;2023-07-28T14:36:03;20.20;99.90
22984;DHT22;11658;48.908;9.140;2023-07-28T14:38:28;20.20;99.90
22984;DHT22;11658;48.908;9.140;2023-07-28T14:40:54;20.10;99.90
22984;DHT22;11658;48.908;9.140;2023-07-28T14:43:19;20.10;99.90
22984;DHT22;11658;48.908;9.140;2023-07-28T14:45:45;20.20;99.90
22984;DHT22;11658;48.908;9.140;2023-07-28T14:48:11;20.40;99.90
22984;DHT22;11658;48.908;9.140;2023-07-28T14:50:37;20.50;99.90
22984;DHT22;11658;48.908;9.140;2023-07-28T14:53:02;20.70;99.90
22984;DHT22;11658;48.908;9.140;2023-07-28T14:55:28;20.70;99.90
22984;DHT22;11658;48.908;9.140;2023-07-28T14:57:53;20.80;99.90
22984;DHT22;11658;48.908;9.140;2023-07-28T15:00:19;20.70;99.90
22984;DHT22;11658;48.908;9.140;2023-07-28T15:02:45;20.80;99.90
22984;DHT22;11658;48.908;9.140;2023-07-28T15:05:10;20.80;99.90
22984;DHT22;11658;48.908;9.140;2023-07-28T15:07:36;20.90;99.90
22984;DHT22;11658;48.908;9.140;2023-07-28T15:10:02;21.00;99.90
22984;DHT22;11658;48.908;9.140;2023-07-28T15:12:28;21.10;99.90
22984;DHT22;11658;48.908;9.140;2023-07-28T15:14:54;21.00;99.90
22984;DHT22;11658;48.908;9.140;2023-07-28T15:17:19;21.00;99.90
22984;DHT22;11658;48.908;9.140;2023-07-28T15:19:45;21.30;99.90
22984;DHT22;11658;48.908;9.140;2023-07-28T15:22:10;21.40;99.90
22984;DHT22;11658;48.908;9.140;2023-07-28T15:24:36;21.60;99.90
22984;DHT22;11658;48.908;9.140;2023-07-28T15:27:02;21.60;99.90
22984;DHT22;11658;48.908;9.140;2023-07-28T15:29:27;21.30;99.90
22984;DHT22;11658;48.908;9.140;2023-07-28T15:31:53;21.20;99.90
22984;DHT22;11658;48.908;9.140;2023-07-28T15:34:20;21.10;99.90
22984;DHT22;11658;48.908;9.140;2023-07-28T15:36:45;21.10;99.90
22984;DHT22;11658;48.908;9.140;2023-07-28T15:39:11;21.20;99.90
22984;DHT22;11658;48.908;9.140;2023-07-28T15:41:36;21.10;99.90
22984;DHT22;11658;48.908;9.140;2023-07-28T15:44:02;20.90;99.90
22984;DHT22;11658;48.908;9.140;2023-07-28T15:46:28;21.00;99.90
22984;DHT22;11658;48.908;9.140;2023-07-28T15:48:53;20.90;99.90
22984;DHT22;11658;48.908;9.140;2023-07-28T15:51:19;20.90;99.90
22984;DHT22;11658;48.908;9.140;2023-07-28T15:53:44;20.80;99.90
22984;DHT22;11658;48.908;9.140;2023-07-28T15:56:10;20.70;99.90
22984;DHT22;11658;48.908;9.140;2023-07-28T15:58:35;20.70;99.90
22984;DHT22;11658;48.908;9.140;2023-07-28T16:01:01;20.60;99.90
22984;DHT22;11658;48.908;9.140;2023-07-28T16:03:27;20.60;99.90
22984;DHT22;11658;48.908;9.140;2023-07-28T16:05:52;20.60;99.90
22984;DHT22;11658;48.908;9.140;2023-07-28T16:08:18;20.60;99.90
22984;DHT22;11658;48.908;9.140;2023-07-28T16:10:43;20.60;99.90
22984;DHT22;11658;48.908;9.140;2023-07-28T16:13:09;20.60;99.90
22984;DHT22;11658;48.908;9.140;2023-07-28T16:15:34;20.60;99.90
22984;DHT22;11658;48.908;9.140;2023-07-28T16:18:00;20.70;99.90
22984;DHT22;11658;48.908;9.140;2023-07-28T16:20:25;20.70;99.90
22984;DHT22;11658;48.908;9.140;2023-07-28T16:22:51;20.80;99.90
22984;DHT22;11658;48.908;9.140;2023-07-28T16:25:18;20.80;99.90
22984;DHT22;11658;48.908;9.140;2023-07-28T16:27:44;20.90;99.90
22984;DHT22;11658;48.908;9.140;2023-07-28T16:30:10;20.90;99.90
22984;DHT22;11658;48.908;9.140;2023-07-28T16:32:35;21.00;99.90
22984;DHT22;11658;48.908;9.140;2023-07-28T16:35:02;21.10;99.90
22984;DHT22;11658;48.908;9.140;2023-07-28T16:37:27;21.20;99.90
22984;DHT22;11658;48.908;9.140;2023-07-28T16:39:53;21.30;99.90
22984;DHT22;11658;48.908;9.140;2023-07-28T16:42:18;21.30;99.90
22984;DHT22;11658;48.908;9.140;2023-07-28T16:44:44;21.40;99.90
22984;DHT22;11658;48.908;9.140;2023-07-28T16:47:10;21.40;99.90
22984;DHT22;11658;48.908;9.140;2023-07-28T16:49:36;21.40;99.90
22984;DHT22;11658;48.908;9.140;2023-07-28T16:52:02;21.50;99.90
22984;DHT22;11658;48.908;9.140;2023-07-28T16:54:28;21.50;99.90
22984;DHT22;11658;48.908;9.140;2023-07-28T16:56:57;21.40;99.90
22984;DHT22;11658;48.908;9.140;2023-07-28T16:59:23;21.40;99.90
22984;DHT22;11658;48.908;9.140;2023-07-28T17:01:49;21.50;99.90
22984;DHT22;11658;48.908;9.140;2023-07-28T17:04:14;21.50;99.90
22984;DHT22;11658;48.908;9.140;2023-07-28T17:06:40;21.40;99.90
22984;DHT22;11658;48.908;9.140;2023-07-28T17:09:06;21.40;99.90
22984;DHT22;11658;48.908;9.140;2023-07-28T17:11:32;21.20;99.90
22984;DHT22;11658;48.908;9.140;2023-07-28T17:13:57;21.10;99.90
22984;DHT22;11658;48.908;9.140;2023-07-28T17:16:23;21.30;99.90
22984;DHT22;11658;48.908;9.140;2023-07-28T17:18:50;21.30;99.90
22984;DHT22;11658;48.908;9.140;2023-07-28T17:21:16;21.50;99.90
22984;DHT22;11658;48.908;9.140;2023-07-28T17:23:41;21.50;99.90
22984;DHT22;11658;48.908;9.140;2023-07-28T17:26:07;21.60;99.90
22984;DHT22;11658;48.908;9.140;2023-07-28T17:28:32;21.60;99.90
22984;DHT22;11658;48.908;9.140;2023-07-28T17:30:58;21.60;99.90
22984;DHT22;11658;48.908;9.140;2023-07-28T17:33:24;21.60;99.90
22984;DHT22;11658;48.908;9.140;2023-07-28T17:35:49;21.50;99.90
22984;DHT22;11658;48.908;9.140;2023-07-28T17:38:15;21.30;99.90
22984;DHT22;11658;48.908;9.140;2023-07-28T17:40:41;21.20;99.90
22984;DHT22;11658;48.908;9.140;2023-07-28T17:43:06;21.00;99.90
22984;DHT22;11658;48.908;9.140;2023-07-28T17:45:32;20.80;99.90
22984;DHT22;11658;48.908;9.140;2023-07-28T17:47:58;20.70;99.90
22984;DHT22;11658;48.908;9.140;2023-07-28T17:50:23;20.80;99.90
22984;DHT22;11658;48.908;9.140;2023-07-28T17:52:49;20.80;99.90
22984;DHT22;11658;48.908;9.140;2023-07-28T17:55:15;20.80;99.90
22984;DHT22;11658;48.908;9.140;2023-07-28T17:57:41;20.70;99.90
22984;DHT22;11658;48.908;9.140;2023-07-28T18:00:07;20.70;99.90
22984;DHT22;11658;48.908;9.140;2023-07-28T18:02:33;20.60;99.90
22984;DHT22;11658;48.908;9.140;2023-07-28T18:05:01;20.60;99.90
22984;DHT22;11658;48.908;9.140;2023-07-28T18:07:26;20.60;99.90
22984;DHT22;11658;48.908;9.140;2023-07-28T18:09:52;20.60;99.90
22984;DHT22;11658;48.908;9.140;2023-07-28T18:12:18;20.70;99.90
22984;DHT22;11658;48.908;9.140;2023-07-28T18:14:43;20.80;99.90
22984;DHT22;11658;48.908;9.140;2023-07-28T18:17:09;20.70;99.90
22984;DHT22;11658;48.908;9.140;2023-07-28T18:19:34;20.70;99.90
22984;DHT22;11658;48.908;9.140;2023-07-28T18:22:00;20.60;99.90
22984;DHT22;11658;48.908;9.140;2023-07-28T18:24:25;20.50;99.90
22984;DHT22;11658;48.908;9.140;2023-07-28T18:26:51;20.50;99.90
22984;DHT22;11658;48.908;9.140;2023-07-28T18:29:17;20.60;99.90
22984;DHT22;11658;48.908;9.140;2023-07-28T18:31:42;20.60;99.90
22984;DHT22;11658;48.908;9.140;2023-07-28T18:34:08;20.50;99.90
22984;DHT22;11658;48.908;9.140;2023-07-28T18:36:33;20.60;99.90
22984;DHT22;11658;48.908;9.140;2023-07-28T18:39:00;20.60;99.90
22984;DHT22;11658;48.908;9.140;2023-07-28T18:41:25;20.60;99.90
22984;DHT22;11658;48.908;9.140;2023-07-28T18:43:51;20.60;99.90
22984;DHT22;11658;48.908;9.140;2023-07-28T18:46:16;20.40;99.90
22984;DHT22;11658;48.908;9.140;2023-07-28T18:48:43;20.30;99.90
22984;DHT22;11658;48.908;9.140;2023-07-28T18:51:08;20.30;99.90
22984;DHT22;11658;48.908;9.140;2023-07-28T18:53:35;20.20;99.90
22984;DHT22;11658;48.908;9.140;2023-07-28T18:56:01;20.00;99.90
22984;DHT22;11658;48.908;9.140;2023-07-28T18:58:26;19.90;99.90
22984;DHT22;11658;48.908;9.140;2023-07-28T19:00:52;19.80;99.90
22984;DHT22;11658;48.908;9.140;2023-07-28T19:03:18;19.70;99.90
22984;DHT22;11658;48.908;9.140;2023-07-28T19:05:44;19.70;99.90
22984;DHT22;11658;48.908;9.140;2023-07-28T19:08:09;19.70;99.90
22984;DHT22;11658;48.908;9.140;2023-07-28T19:10:35;19.60;99.90
22984;DHT22;11658;48.908;9.140;2023-07-28T19:13:00;19.60;99.90
22984;DHT22;11658;48.908;9.140;2023-07-28T19:15:26;19.60;99.90
22984;DHT22;11658;48.908;9.140;2023-07-28T19:17:52;19.60;99.90
22984;DHT22;11658;48.908;9.140;2023-07-28T19:20:17;19.50;99.90
22984;DHT22;11658;48.908;9.140;2023-07-28T19:22:45;19.50;99.90
22984;DHT22;11658;48.908;9.140;2023-07-28T19:25:12;19.50;99.90
22984;DHT22;11658;48.908;9.140;2023-07-28T19:27:38;19.50;99.90
22984;DHT22;11658;48.908;9.140;2023-07-28T19:30:04;19.50;99.90
22984;DHT22;11658;48.908;9.140;2023-07-28T19:32:30;19.50;99.90
22984;DHT22;11658;48.908;9.140;2023-07-28T19:34:56;19.40;99.90
22984;DHT22;11658;48.908;9.140;2023-07-28T19:37:22;19.40;99.90